createdAt,value
2022-12-03T00:02:10.287Z,0.30
2022-12-03T00:04:36.655Z,0.14
2022-12-03T00:07:03.037Z,0.06
2022-12-03T00:09:29.400Z,0.31
2022-12-03T00:11:55.697Z,0.39
2022-12-03T00:14:22.025Z,0.42
2022-12-03T00:16:48.936Z,0.21
2022-12-03T00:19:15.389Z,0.28
2022-12-03T00:21:41.712Z,0.26
2022-12-03T00:24:08.507Z,0.17
2022-12-03T00:26:34.812Z,0.25
2022-12-03T00:29:01.117Z,0.26
2022-12-03T00:31:27.499Z,0.06
2022-12-03T00:33:53.954Z,-0.20
2022-12-03T00:36:20.437Z,-0.06
2022-12-03T00:38:46.764Z,-0.04
2022-12-03T00:41:13.124Z,-0.03
2022-12-03T00:43:39.462Z,-0.08
2022-12-03T00:46:06.077Z,-0.03
2022-12-03T00:48:32.441Z,0.08
2022-12-03T00:50:58.769Z,-0.07
2022-12-03T00:53:25.163Z,0.02
2022-12-03T00:55:51.490Z,-0.21
2022-12-03T00:58:18.316Z,-0.18
2022-12-03T01:00:44.661Z,-0.14
2022-12-03T01:03:11.119Z,-0.11
2022-12-03T01:05:37.601Z,0.14
2022-12-03T01:08:04.095Z,-0.05
2022-12-03T01:10:30.555Z,-0.15
2022-12-03T01:12:56.853Z,0.06
2022-12-03T01:15:23.207Z,-0.27
2022-12-03T01:17:49.583Z,-0.08
2022-12-03T01:20:15.929Z,-0.09
2022-12-03T01:22:42.243Z,-0.08
2022-12-03T01:25:09.024Z,0.05
2022-12-03T01:27:35.334Z,-0.08
2022-12-03T01:30:01.774Z,-0.03
2022-12-03T01:32:28.122Z,-0.22
2022-12-03T01:34:55.876Z,-0.09
2022-12-03T01:37:24.957Z,-0.13
2022-12-03T01:39:51.868Z,-0.29
2022-12-03T01:42:22.078Z,-0.29
2022-12-03T01:44:51.237Z,-0.35
2022-12-03T01:47:20.245Z,-0.49
2022-12-03T01:49:54.199Z,-0.32
2022-12-03T01:52:24.773Z,-0.34
2022-12-03T01:54:55.712Z,-0.52
2022-12-03T01:57:27.200Z,-0.45
2022-12-03T01:59:56.119Z,-0.48
2022-12-03T02:02:31.122Z,-0.56
2022-12-03T02:04:58.479Z,-0.59
2022-12-03T02:07:30.475Z,-0.54
2022-12-03T02:09:58.969Z,-0.49
2022-12-03T02:12:31.969Z,-0.51
2022-12-03T02:14:59.363Z,-0.33
2022-12-03T02:17:26.750Z,-0.42
2022-12-03T02:19:54.036Z,-0.46
2022-12-03T02:22:32.372Z,-0.57
2022-12-03T02:25:04.917Z,-0.43
2022-12-03T02:27:31.248Z,-0.49
2022-12-03T02:29:57.702Z,-0.59
2022-12-03T02:32:24.175Z,-0.55
2022-12-03T02:34:51.056Z,-0.54
2022-12-03T02:37:22.398Z,-0.60
2022-12-03T02:39:53.657Z,-0.39
2022-12-03T02:42:20.592Z,-0.40
2022-12-03T02:44:46.938Z,-0.62
2022-12-03T02:47:13.405Z,-0.55
2022-12-03T02:49:40.366Z,-0.37
2022-12-03T02:52:06.809Z,-0.50
2022-12-03T02:54:33.247Z,-0.43
2022-12-03T02:56:59.804Z,-0.39
2022-12-03T02:59:26.166Z,-0.35
2022-12-03T03:01:52.659Z,-0.51
2022-12-03T03:04:19.249Z,-0.41
2022-12-03T03:06:45.736Z,-0.58
2022-12-03T03:09:12.496Z,-0.20
2022-12-03T03:11:38.927Z,-0.42
2022-12-03T03:14:05.360Z,-0.32
2022-12-03T03:16:33.797Z,-0.28
2022-12-03T03:19:01.057Z,-0.70
2022-12-03T03:21:27.761Z,-0.69
2022-12-03T03:23:54.165Z,-0.64
2022-12-03T03:26:20.524Z,-0.65
2022-12-03T03:28:49.805Z,-0.64
2022-12-03T03:31:19.377Z,-0.57
2022-12-03T03:33:48.013Z,-0.63
2022-12-03T03:36:15.155Z,-0.56
2022-12-03T03:38:41.724Z,-0.53
2022-12-03T03:41:09.737Z,-0.46
2022-12-03T03:43:39.807Z,-0.43
2022-12-03T03:46:07.372Z,-0.40
2022-12-03T03:48:35.181Z,-0.43
2022-12-03T03:51:03.157Z,-0.36
2022-12-03T03:53:30.779Z,-0.37
2022-12-03T03:55:57.202Z,-0.41
2022-12-03T03:58:23.707Z,-0.70
2022-12-03T04:00:50.105Z,-0.68
2022-12-03T04:03:16.447Z,-0.68
2022-12-03T04:05:42.877Z,-0.74
2022-12-03T04:08:09.306Z,-0.71
2022-12-03T04:10:35.687Z,-0.85
2022-12-03T04:13:02.278Z,-1.00
2022-12-03T04:15:29.188Z,-0.93
2022-12-03T04:17:55.811Z,-0.87
2022-12-03T04:20:22.162Z,-0.82
2022-12-03T04:22:48.479Z,-0.94
2022-12-03T04:25:14.839Z,-0.83
2022-12-03T04:27:41.169Z,-0.77
2022-12-03T04:30:08.165Z,-0.79
2022-12-03T04:32:34.510Z,-0.83
2022-12-03T04:35:01.031Z,-0.75
2022-12-03T04:37:27.510Z,-0.79
2022-12-03T04:39:53.955Z,-0.76
2022-12-03T04:42:20.295Z,-0.83
2022-12-03T04:44:46.628Z,-0.87
2022-12-03T04:47:19.276Z,-0.95
2022-12-03T04:49:48.404Z,-0.62
2022-12-03T04:52:17.070Z,-0.93
2022-12-03T04:54:43.930Z,-0.76
2022-12-03T04:57:11.318Z,-0.89
2022-12-03T04:59:38.186Z,-0.98
2022-12-03T05:02:05.693Z,-1.13
2022-12-03T05:04:32.181Z,-1.09
2022-12-03T05:06:58.502Z,-1.15
2022-12-03T05:09:24.849Z,-1.03
2022-12-03T05:11:51.224Z,-1.03
2022-12-03T05:14:17.566Z,-0.84
2022-12-03T05:16:43.969Z,-0.81
2022-12-03T05:19:10.408Z,-0.85
2022-12-03T05:21:36.791Z,-1.01
2022-12-03T05:24:03.460Z,-0.92
2022-12-03T05:26:29.801Z,-0.60
2022-12-03T05:28:56.135Z,-0.82
2022-12-03T05:31:22.632Z,-0.98
2022-12-03T05:33:49.012Z,-0.96
2022-12-03T05:36:15.393Z,-0.94
2022-12-03T05:38:41.775Z,-0.86
2022-12-03T05:41:08.094Z,-0.82
2022-12-03T05:43:34.438Z,-0.76
2022-12-03T05:46:00.798Z,-0.67
2022-12-03T05:48:27.145Z,-0.59
2022-12-03T05:50:53.461Z,-0.59
2022-12-03T05:53:19.799Z,-0.84
2022-12-03T05:55:46.120Z,-0.93
2022-12-03T05:58:12.455Z,-1.11
2022-12-03T06:00:42.645Z,-0.95
2022-12-03T06:03:09.551Z,-0.99
2022-12-03T06:05:36.053Z,-0.98
2022-12-03T06:08:02.531Z,-1.10
2022-12-03T06:10:29.645Z,-0.88
2022-12-03T06:12:56.194Z,-0.80
2022-12-03T06:15:23.353Z,-0.83
2022-12-03T06:17:49.706Z,-0.97
2022-12-03T06:20:19.066Z,-0.99
2022-12-03T06:22:45.651Z,-1.19
2022-12-03T06:25:13.049Z,-1.15
2022-12-03T06:27:39.410Z,-0.93
2022-12-03T06:30:06.994Z,-0.82
2022-12-03T06:32:33.306Z,-0.98
2022-12-03T06:34:59.677Z,-0.92
2022-12-03T06:37:26.035Z,-0.97
2022-12-03T06:39:52.384Z,-0.99
2022-12-03T06:42:18.757Z,-1.13
2022-12-03T06:44:45.088Z,-1.00
2022-12-03T06:47:11.423Z,-0.97
2022-12-03T06:49:37.769Z,-1.18
2022-12-03T06:52:04.213Z,-1.17
2022-12-03T06:54:30.532Z,-1.21
2022-12-03T06:56:56.882Z,-1.17
2022-12-03T06:59:23.204Z,-1.04
2022-12-03T07:01:49.554Z,-1.06
2022-12-03T07:04:15.921Z,-1.09
2022-12-03T07:06:42.343Z,-1.00
2022-12-03T07:09:08.702Z,-1.16
2022-12-03T07:11:35.046Z,-1.10
2022-12-03T07:14:05.393Z,-1.18
2022-12-03T07:16:32.270Z,-0.99
2022-12-03T07:18:58.664Z,-0.82
2022-12-03T07:21:24.977Z,-0.99
2022-12-03T07:23:51.362Z,-0.93
2022-12-03T07:26:17.661Z,-0.72
2022-12-03T07:28:43.976Z,-0.86
2022-12-03T07:31:10.333Z,-0.74
2022-12-03T07:33:36.728Z,-0.88
2022-12-03T07:36:03.153Z,-0.93
2022-12-03T07:38:29.468Z,-0.89
2022-12-03T07:40:55.788Z,-0.90
2022-12-03T07:43:22.129Z,-0.86
2022-12-03T07:45:48.653Z,-0.91
2022-12-03T07:48:14.988Z,-1.04
2022-12-03T07:50:41.357Z,-1.24
2022-12-03T07:53:07.676Z,-1.19
2022-12-03T07:55:33.997Z,-1.27
2022-12-03T07:58:00.329Z,-1.29
2022-12-03T08:00:26.785Z,-1.20
2022-12-03T08:02:53.166Z,-1.09
2022-12-03T08:05:19.518Z,-0.88
2022-12-03T08:07:45.929Z,-0.94
2022-12-03T08:10:12.307Z,-0.99
2022-12-03T08:12:39.728Z,-1.05
2022-12-03T08:15:12.536Z,-1.08
2022-12-03T08:17:39.256Z,-1.17
2022-12-03T08:20:24.351Z,-1.17
2022-12-03T08:22:51.784Z,-1.08
2022-12-03T08:25:29.019Z,-1.00
2022-12-03T08:28:15.588Z,-1.29
2022-12-03T08:30:44.406Z,-1.09
2022-12-03T08:33:20.269Z,-1.22
2022-12-03T08:35:50.040Z,-1.22
2022-12-03T08:38:18.414Z,-1.08
2022-12-03T08:40:47.621Z,-0.92
2022-12-03T08:43:24.286Z,-0.93
2022-12-03T08:45:52.847Z,-1.05
2022-12-03T08:48:22.972Z,-0.94
2022-12-03T08:50:49.350Z,-0.87
2022-12-03T08:53:30.832Z,-0.91
2022-12-03T08:55:59.807Z,-1.30
2022-12-03T08:58:41.251Z,-1.15
2022-12-03T09:01:10.721Z,-1.10
2022-12-03T09:04:04.299Z,-1.27
2022-12-03T09:06:30.718Z,-1.04
2022-12-03T09:08:57.058Z,-1.12
2022-12-03T09:11:23.397Z,-0.79
2022-12-03T09:13:49.703Z,-0.85
2022-12-03T09:16:16.069Z,-1.20
2022-12-03T09:18:42.427Z,-1.01
2022-12-03T09:21:08.743Z,-1.09
2022-12-03T09:23:35.047Z,-0.75
2022-12-03T09:26:01.374Z,-0.82
2022-12-03T09:28:27.676Z,-0.66
2022-12-03T09:30:54.009Z,-0.89
2022-12-03T09:33:20.309Z,-0.96
2022-12-03T09:35:46.666Z,-0.71
2022-12-03T09:38:12.985Z,-0.51
2022-12-03T09:40:39.334Z,-0.66
2022-12-03T09:43:05.905Z,-0.52
2022-12-03T09:45:32.317Z,-0.51
2022-12-03T09:48:01.689Z,-0.78
2022-12-03T09:50:28.052Z,-0.52
2022-12-03T09:52:57.698Z,-0.58
2022-12-03T09:55:27.682Z,-0.42
2022-12-03T09:57:55.911Z,-0.72
2022-12-03T10:00:26.158Z,-0.75
2022-12-03T10:02:56.407Z,-0.68
2022-12-03T10:05:23.692Z,-0.48
2022-12-03T10:07:51.999Z,-0.36
2022-12-03T10:10:21.727Z,-0.47
2022-12-03T10:12:48.930Z,-0.40
2022-12-03T10:15:18.933Z,-0.23
2022-12-03T10:17:50.696Z,-0.17
2022-12-03T10:20:19.968Z,-0.33
2022-12-03T10:22:46.365Z,-0.40
2022-12-03T10:25:15.445Z,-0.18
2022-12-03T10:27:42.550Z,-0.29
2022-12-03T10:30:18.784Z,-0.46
2022-12-03T10:32:46.387Z,-0.26
2022-12-03T10:35:22.028Z,0.02
2022-12-03T10:38:01.770Z,0.21
2022-12-03T10:40:33.453Z,-0.24
2022-12-03T10:43:18.125Z,-0.29
2022-12-03T10:46:04.417Z,-0.17
2022-12-03T10:48:31.253Z,0.09
2022-12-03T10:51:18.093Z,-0.25
2022-12-03T10:53:44.492Z,-0.32
2022-12-03T10:56:17.659Z,-0.15
2022-12-03T10:58:44.029Z,-0.34
2022-12-03T11:01:17.378Z,-0.51
2022-12-03T11:03:44.451Z,-0.54
2022-12-03T11:06:16.470Z,-0.26
2022-12-03T11:08:45.514Z,-0.29
2022-12-03T11:11:20.032Z,-0.53
2022-12-03T11:13:50.659Z,-0.55
2022-12-03T11:16:38.848Z,-0.01
2022-12-03T11:19:45.602Z,-0.43
2022-12-03T11:22:11.864Z,-0.39
2022-12-03T11:24:41.004Z,-0.03
2022-12-03T11:27:10.362Z,-0.11
2022-12-03T11:30:00.837Z,-0.39
2022-12-03T11:32:38.994Z,-0.54
2022-12-03T11:35:12.748Z,-0.38
2022-12-03T11:37:39.261Z,-0.39
2022-12-03T11:40:17.537Z,-0.58
2022-12-03T11:42:46.050Z,-0.48
2022-12-03T11:45:22.778Z,-0.32
2022-12-03T11:48:14.070Z,0.10
2022-12-03T11:50:50.710Z,-0.04
2022-12-03T11:53:22.060Z,-0.19
2022-12-03T11:55:51.972Z,-0.20
2022-12-03T11:58:29.986Z,-0.51
2022-12-03T12:00:58.497Z,-0.24
2022-12-03T12:03:33.192Z,-0.61
2022-12-03T12:06:11.156Z,-0.39
2022-12-03T12:08:59.384Z,-0.49
2022-12-03T12:11:26.963Z,-0.26
2022-12-03T12:13:56.752Z,-0.13
2022-12-03T12:16:45.939Z,-0.33
2022-12-03T12:19:34.051Z,-0.52
2022-12-03T12:22:23.565Z,-0.58
2022-12-03T12:24:52.532Z,-0.57
2022-12-03T12:27:20.976Z,-0.48
2022-12-03T12:30:02.099Z,-0.37
2022-12-03T12:32:33.822Z,-0.38
2022-12-03T12:35:12.976Z,-0.71
2022-12-03T12:37:50.117Z,-0.43
2022-12-03T12:40:26.870Z,-0.49
2022-12-03T12:43:13.526Z,-0.55
2022-12-03T12:45:43.747Z,-0.24
2022-12-03T12:48:10.115Z,-0.58
2022-12-03T12:50:38.521Z,-0.53
2022-12-03T12:53:10.970Z,-0.88
2022-12-03T12:55:40.751Z,-0.92
2022-12-03T12:58:17.590Z,-0.87
2022-12-03T13:00:50.945Z,-0.71
2022-12-03T13:03:20.054Z,-0.59
2022-12-03T13:05:48.682Z,-1.00
2022-12-03T13:08:37.219Z,-0.81
2022-12-03T13:11:03.725Z,-0.96
2022-12-03T13:13:29.997Z,-0.95
2022-12-03T13:16:22.862Z,-0.81
2022-12-03T13:19:02.112Z,-0.59
2022-12-03T13:21:40.156Z,-0.36
2022-12-03T13:24:35.385Z,-0.51
2022-12-03T13:27:13.666Z,-0.72
2022-12-03T13:29:40.096Z,-0.96
2022-12-03T13:32:35.639Z,-0.93
2022-12-03T13:35:22.115Z,-1.06
2022-12-03T13:37:48.591Z,-1.04
2022-12-03T13:40:28.577Z,-0.89
2022-12-03T13:42:54.926Z,-0.86
2022-12-03T13:45:27.084Z,-0.74
2022-12-03T13:47:56.418Z,-0.82
2022-12-03T13:50:28.523Z,-0.61
2022-12-03T13:52:55.149Z,-0.70
2022-12-03T13:55:31.771Z,-0.69
2022-12-03T13:57:58.150Z,-0.71
2022-12-03T14:00:24.506Z,-0.71
2022-12-03T14:02:50.933Z,-0.89
2022-12-03T14:05:17.341Z,-0.99
2022-12-03T14:07:43.848Z,-0.76
2022-12-03T14:10:12.012Z,-0.66
2022-12-03T14:12:38.705Z,-0.59
2022-12-03T14:15:06.413Z,-0.65
2022-12-03T14:17:32.907Z,-0.63
2022-12-03T14:20:00.184Z,-0.56
2022-12-03T14:22:26.774Z,-1.10
2022-12-03T14:24:54.011Z,-1.06
2022-12-03T14:27:21.282Z,-0.81
2022-12-03T14:29:47.762Z,-1.06
2022-12-03T14:32:14.138Z,-0.95
2022-12-03T14:34:40.969Z,-0.97
2022-12-03T14:37:07.725Z,-0.80
2022-12-03T14:39:34.082Z,-0.78
2022-12-03T14:42:00.433Z,-1.05
2022-12-03T14:44:26.771Z,-0.71
2022-12-03T14:46:57.029Z,-0.97
2022-12-03T14:49:23.806Z,-1.01
2022-12-03T14:51:50.136Z,-0.74
2022-12-03T14:54:16.510Z,-1.05
2022-12-03T14:56:42.909Z,-0.88
2022-12-03T14:59:09.210Z,-0.82
2022-12-03T15:01:35.589Z,-0.70
2022-12-03T15:04:01.966Z,-0.62
2022-12-03T15:06:28.386Z,-0.80
2022-12-03T15:08:54.972Z,-0.80
2022-12-03T15:11:24.610Z,-1.14
2022-12-03T15:13:51.034Z,-0.96
2022-12-03T15:16:17.510Z,-0.88
2022-12-03T15:18:43.876Z,-1.20
2022-12-03T15:21:10.271Z,-1.11
2022-12-03T15:23:36.637Z,-1.05
2022-12-03T15:26:03.541Z,-0.96
2022-12-03T15:28:29.879Z,-0.78
2022-12-03T15:30:56.374Z,-0.69
2022-12-03T15:33:22.721Z,-1.09
2022-12-03T15:35:49.528Z,-1.25
2022-12-03T15:38:15.799Z,-1.03
2022-12-03T15:40:42.130Z,-1.09
2022-12-03T15:43:09.226Z,-1.18
2022-12-03T15:45:36.220Z,-0.97
2022-12-03T15:48:02.691Z,-1.15
2022-12-03T15:50:29.109Z,-1.05
2022-12-03T15:52:55.693Z,-1.02
2022-12-03T15:55:22.195Z,-0.75
2022-12-03T15:57:48.672Z,-1.04
2022-12-03T16:00:16.051Z,-0.99
2022-12-03T16:02:47.532Z,-0.98
2022-12-03T16:05:17.396Z,-1.10
2022-12-03T16:07:43.840Z,-1.11
2022-12-03T16:10:11.233Z,-0.71
2022-12-03T16:12:37.571Z,-0.74
2022-12-03T16:15:04.279Z,-1.15
2022-12-03T16:17:30.651Z,-1.13
2022-12-03T16:19:57.166Z,-1.10
2022-12-03T16:22:23.609Z,-0.95
2022-12-03T16:24:49.927Z,-1.14
2022-12-03T16:27:16.262Z,-0.97
2022-12-03T16:29:42.583Z,-0.73
2022-12-03T16:32:08.920Z,-1.01
2022-12-03T16:34:35.226Z,-1.03
2022-12-03T16:37:01.546Z,-1.19
2022-12-03T16:39:27.874Z,-1.33
2022-12-03T16:41:54.176Z,-1.02
2022-12-03T16:44:20.500Z,-0.99
2022-12-03T16:46:47.054Z,-0.94
2022-12-03T16:49:13.455Z,-1.06
2022-12-03T16:51:39.844Z,-1.01
2022-12-03T16:54:06.164Z,-1.00
2022-12-03T16:56:32.484Z,-1.00
2022-12-03T16:58:58.801Z,-1.20
2022-12-03T17:01:25.166Z,-0.92
2022-12-03T17:03:51.507Z,-0.76
2022-12-03T17:06:17.865Z,-0.78
2022-12-03T17:08:49.037Z,-1.21
2022-12-03T17:11:16.128Z,-1.17
2022-12-03T17:13:42.522Z,-0.98
2022-12-03T17:16:09.068Z,-1.00
2022-12-03T17:18:35.440Z,-0.97
2022-12-03T17:21:01.817Z,-1.10
2022-12-03T17:23:28.162Z,-1.22
2022-12-03T17:25:54.658Z,-1.26
2022-12-03T17:28:21.010Z,-1.25
2022-12-03T17:30:47.391Z,-1.11
2022-12-03T17:33:13.808Z,-1.06
2022-12-03T17:35:40.175Z,-1.01
2022-12-03T17:38:06.488Z,-1.02
2022-12-03T17:40:32.851Z,-1.00
2022-12-03T17:42:59.159Z,-0.95
2022-12-03T17:45:25.502Z,-0.88
2022-12-03T17:47:51.812Z,-1.03
2022-12-03T17:50:18.209Z,-1.07
2022-12-03T17:52:44.554Z,-0.88
2022-12-03T17:55:14.567Z,-1.01
2022-12-03T17:57:47.871Z,-1.12
2022-12-03T18:00:14.421Z,-1.08
2022-12-03T18:02:40.744Z,-0.97
2022-12-03T18:05:07.326Z,-0.96
2022-12-03T18:07:33.935Z,-1.07
2022-12-03T18:10:00.330Z,-1.01
2022-12-03T18:12:26.868Z,-0.87
2022-12-03T18:14:53.221Z,-1.02
2022-12-03T18:17:19.537Z,-0.93
2022-12-03T18:19:45.909Z,-0.85
2022-12-03T18:22:12.292Z,-0.71
2022-12-03T18:24:38.769Z,-0.88
2022-12-03T18:27:05.120Z,-0.86
2022-12-03T18:29:31.771Z,-0.83
2022-12-03T18:31:58.341Z,-0.82
2022-12-03T18:34:24.703Z,-0.91
2022-12-03T18:36:51.218Z,-0.94
2022-12-03T18:39:27.229Z,-1.09
2022-12-03T18:41:53.886Z,-1.00
2022-12-03T18:44:20.556Z,-1.09
2022-12-03T18:46:54.922Z,-1.05
2022-12-03T18:49:21.867Z,-1.32
2022-12-03T18:51:48.581Z,-1.01
2022-12-03T18:54:15.495Z,-1.02
2022-12-03T18:56:41.893Z,-1.04
2022-12-03T18:59:08.867Z,-1.09
2022-12-03T19:01:36.107Z,-1.04
2022-12-03T19:04:02.990Z,-1.11
2022-12-03T19:06:29.418Z,-1.21
2022-12-03T19:08:56.354Z,-1.28
2022-12-03T19:11:22.877Z,-1.33
2022-12-03T19:13:49.193Z,-1.32
2022-12-03T19:16:15.594Z,-1.19
2022-12-03T19:18:42.403Z,-0.97
2022-12-03T19:21:11.680Z,-1.26
2022-12-03T19:23:39.132Z,-1.16
2022-12-03T19:26:09.251Z,-1.20
2022-12-03T19:28:36.113Z,-1.21
2022-12-03T19:31:06.144Z,-1.09
2022-12-03T19:33:33.322Z,-1.09
2022-12-03T19:36:00.592Z,-0.80
2022-12-03T19:38:28.702Z,-0.90
2022-12-03T19:41:05.915Z,-0.86
2022-12-03T19:43:33.644Z,-1.18
2022-12-03T19:46:08.379Z,-1.02
2022-12-03T19:48:35.178Z,-1.14
2022-12-03T19:51:19.742Z,-1.07
2022-12-03T19:53:48.270Z,-0.97
2022-12-03T19:56:17.346Z,-1.22
2022-12-03T19:58:45.577Z,-1.08
2022-12-03T20:01:17.653Z,-1.06
2022-12-03T20:03:49.755Z,-1.25
2022-12-03T20:06:18.288Z,-1.12
2022-12-03T20:08:45.490Z,-0.94
2022-12-03T20:11:17.436Z,-0.96
2022-12-03T20:13:44.547Z,-0.90
2022-12-03T20:16:13.872Z,-1.11
2022-12-03T20:18:41.790Z,-1.12
2022-12-03T20:21:09.867Z,-1.07
2022-12-03T20:23:36.624Z,-1.15
2022-12-03T20:26:07.273Z,-1.17
2022-12-03T20:28:33.583Z,-0.86
2022-12-03T20:31:17.872Z,-1.09
2022-12-03T20:33:47.541Z,-0.96
2022-12-03T20:36:16.303Z,-0.98
2022-12-03T20:38:42.957Z,-1.12
2022-12-03T20:41:12.590Z,-0.99
2022-12-03T20:43:39.136Z,-0.94
2022-12-03T20:46:19.868Z,-1.13
2022-12-03T20:48:46.814Z,-0.86
2022-12-03T20:51:18.792Z,-0.94
2022-12-03T20:53:46.309Z,-0.98
2022-12-03T20:56:28.017Z,-0.96
2022-12-03T20:58:54.364Z,-1.00
2022-12-03T21:01:23.830Z,-1.08
2022-12-03T21:03:52.492Z,-1.18
2022-12-03T21:06:19.656Z,-1.04
2022-12-03T21:08:46.288Z,-0.92
2022-12-03T21:11:16.320Z,-1.07
2022-12-03T21:13:43.110Z,-1.04
2022-12-03T21:16:12.538Z,-0.81
2022-12-03T21:18:39.073Z,-0.82
2022-12-03T21:21:06.977Z,-1.08
2022-12-03T21:23:33.890Z,-1.10
2022-12-03T21:26:09.488Z,-1.05
2022-12-03T21:28:38.211Z,-1.17
2022-12-03T21:31:07.558Z,-0.80
2022-12-03T21:33:34.984Z,-0.89
2022-12-03T21:36:02.081Z,-0.93
2022-12-03T21:38:29.424Z,-0.80
2022-12-03T21:40:56.775Z,-0.81
2022-12-03T21:43:24.149Z,-0.74
2022-12-03T21:45:50.984Z,-0.73
2022-12-03T21:48:17.620Z,-0.66
2022-12-03T21:50:45.311Z,-0.92
2022-12-03T21:53:12.751Z,-0.79
2022-12-03T21:55:40.511Z,-0.54
2022-12-03T21:58:08.167Z,-0.78
2022-12-03T22:00:34.660Z,-1.09
2022-12-03T22:03:01.086Z,-0.77
2022-12-03T22:05:27.489Z,-0.53
2022-12-03T22:07:53.832Z,-0.33
2022-12-03T22:10:20.362Z,-0.53
2022-12-03T22:12:46.738Z,-0.57
2022-12-03T22:15:18.466Z,-0.56
2022-12-03T22:17:45.380Z,-0.97
2022-12-03T22:20:12.163Z,-1.03
2022-12-03T22:22:38.460Z,-0.95
2022-12-03T22:25:05.003Z,-0.80
2022-12-03T22:27:31.370Z,-0.62
2022-12-03T22:29:57.851Z,-0.72
2022-12-03T22:32:24.245Z,-0.59
2022-12-03T22:34:50.598Z,-0.66
2022-12-03T22:37:17.011Z,-0.70
2022-12-03T22:39:43.370Z,-0.61
2022-12-03T22:42:09.857Z,-0.63
2022-12-03T22:44:37.312Z,-0.85
2022-12-03T22:47:03.949Z,-0.83
2022-12-03T22:49:30.318Z,-0.72
2022-12-03T22:51:56.660Z,-0.54
2022-12-03T22:54:24.289Z,-0.72
2022-12-03T22:56:50.989Z,-0.73
2022-12-03T22:59:17.385Z,-0.78
2022-12-03T23:01:43.724Z,-0.97
2022-12-03T23:04:11.017Z,-1.01
2022-12-03T23:06:37.683Z,-0.98
2022-12-03T23:09:05.956Z,-0.79
2022-12-03T23:11:32.310Z,-0.89
2022-12-03T23:13:58.741Z,-0.92
2022-12-03T23:16:28.067Z,-0.83
2022-12-03T23:18:57.867Z,-0.75
2022-12-03T23:21:29.923Z,-0.95
2022-12-03T23:24:01.075Z,-0.86
2022-12-03T23:26:28.423Z,-0.74
2022-12-03T23:28:55.129Z,-0.48
2022-12-03T23:31:26.354Z,-0.80
2022-12-03T23:33:53.610Z,-0.84
2022-12-03T23:36:21.252Z,-0.77
2022-12-03T23:38:47.598Z,-0.73
2022-12-03T23:41:16.653Z,-0.99
2022-12-03T23:43:43.562Z,-0.85
2022-12-03T23:46:13.347Z,-0.82
2022-12-03T23:48:39.829Z,-0.70
2022-12-03T23:51:12.039Z,-0.69
2022-12-03T23:53:39.082Z,-0.87
2022-12-03T23:56:11.118Z,-0.66
2022-12-03T23:58:37.780Z,-0.51
